Mitgliederbereich
Imprimable
Liège, 05/05/2019, BEL - 15km de Liege Métropole
Liste der Berichte > 25km - Trail - Ergebnis
Suche: Seite: [1]
291 Eingaben
 
Les réclamations ne sont plus acceptées, les résultats sont considérés comme définitifs.
Kategorie
PosNrNameAgeNATMannschaftZeitTkmMoy.PlatzNameScrStadt
1.5121LECLERQ PIERRE41BELI LOVE RUNNING LIÈGE2:00:274:50 12.451ve11QUEUE-DU-BOIS
2.5494LONCAR FREDDY47BELMJ SPORT2:08:295:09 11.682ve12HERMALLE SOUS HUY
3.5004NIHANT FLORENT RENAUD23BEL2:10:095:13 11.531sen3HERSTAL
4.5101BELVAUX YANNICK35BELDECATHLON2:10:395:14 11.482sen4WAREMME
5.5313TROUPIN CHARLES37BELULIEGE - JCPMF ST192:10:545:15 11.463sen5VERVIERS
6.5492WITTORSKI QUENTIN PIERRE22BEL2:12:045:17 11.364sen6ANTHISNES
7.5498AYAOU BASIL21BEL2:12:085:18 11.355sen7GRIVEGNEE
8.5059VERROT MATHIAS25FRAHEPL - PERSONNEL2:12:255:18 11.336sen8SAINT JEAN DE MUZOLS
9.5192FOGUENNE SIMON32BEL2:12:395:19 11.317sen9FLÉMALLE
10.5289ROBERT JONATHAN37BELULIEGE -2:13:155:20 11.268sen10LIÈGE
11.5084PERIN LOGAN22BELHAUTE ECOLE CHARLEMAGNE2:13:425:21 11.229sen11ANDENNE
12.5434COURQUIN EDOUARD27FRA2:13:525:22 11.2110sen12LIÈGE
13.5062CARLIER FRANÇOIS46BELHEPL LOGO2:13:565:22 11.203ve113HERMÉE
14.5448SCHOUMACKERS BENOÎT45BEL2:14:055:22 11.194ve114HUY ( SOLIÈRES )
15.5009BRUNEEL PHILIPPE44BELCHACHADOUDOU2:14:345:23 11.155ve115OUPEYE
16.5122PARENT PASCAL50BELINSTRUCTION PUBLIQUE2:14:445:24 11.131ve216LIEGE
17.5163CHARLIER DAMIEN33BELJOGGING CLUB HERSTAL2:16:165:28 11.0111sen18LIÈGE
18.5266OLIVEIRA LOURO SERGIO26PRT2:16:215:28 11.0012sen19LEXY
19.5286RAVIGNA PIERRE61BELJIA2:16:425:29 10.971ve320GRIVEGNÉE
20.5123PEETERSILLE FREDERIC47BELINSTRUCTION PUBLIQUE2:16:455:29 10.976ve121TROOZ
21.5505NIZET CHRISTOPHE29BEL2:16:595:29 10.9513sen22LIÈGE
22.5085TIREZ GILLES34BELCARITAS INTERNATIONAL2:17:155:30 10.9314sen23LIEGE
23.5464DEWANCKELE CEDRIC42BEL2:17:225:30 10.927ve124ANGLEUR
24.5256MAYOMBO CHRISTIAN31BEL2:17:305:30 10.9115sen25LIEGE
25.5251MARCHAL LUDOVIC46BELJIA2:17:485:31 10.898ve126LIEGE
26.5065GAIFFE PAUL22FRAHEPL KINE2:18:115:32 10.8616sen27LIÈGE
27.5500FRANCOIS JORDAN38BELYOGGING CLUB2:18:225:33 10.8417sen28BILSTAIN
28.5051BROUWERS MICHAËL39BELHEPL - PERSONNEL2:18:235:33 10.8418sen29XHENDELESSE
29.5501ROBINET DANY31BELYOGGING CLUB2:19:265:35 10.7619sen30WELKENRAEDT
30.5104COURTOY NICOLAS33DEUMUCO RUN LIÈGE2:21:005:39 10.6420sen32LIÈGE
31.5187DUPONT JEREMIE37BELULIEGE -2:21:015:39 10.6421sen33ANDENNE
32.5010MARCHAL PIERRE31BEL2:21:025:39 10.6422sen34LIÈGE
33.5050SCHMITS RAPHAEL42BELHEPL - PERSONNEL2:21:535:41 10.579ve135
34.5052DEWALLEF PASCAL45BELHEPL - PERSONNEL2:22:045:41 10.5610ve136SAIVE
35.5514AOUICHA ANTOINE39BEL2:22:095:42 10.5523sen37HUY
36.5489LECLERCQ GREGORY30BEL2:22:375:43 10.5224sen38ENFER DES VILLES
37.5071RENARD CHRISTOPHE26BELHEPL KINE2:22:425:43 10.5125sen39ANGLEUR
38.5162CERFONTAINE PHILIPPE40BELULIEGE - JCPMF ST192:23:315:45 10.4511ve141EUPEN
39.5263NIHANT FABIAN52BEL2:23:425:45 10.442ve242HERSTAL
40.2417DA SILVA TONY43PRTRFCL2:23:485:46 10.4312ve143SPRIMONT
41.5018WILLEMS PIERRE YVAN43BEL2:24:145:47 10.4013ve145COMBLAIN-AU-PONT
42.5151BONOMO SEBASTIEN37BEL2:24:265:47 10.3926sen46BASSENGE
43.5113PIRON DIDIER54BELCAP NRB2:24:325:47 10.383ve247SERAING
44.5105FRERE SEBASTIEN37BELMUCO RUN LIÈGE2:24:485:48 10.3627sen48BONCELLES
45.5470LECLERCQ YANNICK39BEL2:25:055:49 10.3428sen49VERVIERS
46.5094KOSCHNICKE YVES31BELRESA2:25:055:49 10.3429sen50QUEUE DU BOIS (BEYNE-HEUS
47.5012MALENGREAUX BENJAMIN37BELFAT TEAM2:25:145:49 10.3330sen51MARCHIN
48.5491DEDRY THOMAS35BEL2:25:295:50 10.3131sen52LIEGE
49.5518BERNAR FRANCOIS24BEL2:25:505:50 10.2932sen53WANZE
50.5124PROES MICKAEL40BELINSTRUCTION PUBLIQUE2:26:015:51 10.2714ve155HEURE-LE-ROMAIN
51.5066GONZALEZ KILLIAN22FRAHEPL KINE2:26:125:51 10.2633sen57LIEGE
52.5439BLANGY FLORENT31FRA2:26:185:52 10.2534sen58MARSEILLE
53.5080GILDEMEESTER YANNICK41BELHAUTE ECOLE CHARLEMAGNE2:26:195:52 10.2515ve159PETIT-RECHAIN
54.5092BREVER JEAN-FRANÇOIS44BELRESA2:26:315:52 10.2416ve160ANDRIMONT
55.5472CRAHAY CÉDRIC43BEL2:26:415:52 10.2317ve161SPRIMONT
56.5054VROOMEN DAVID46BELHEPL - PERSONNEL2:26:585:53 10.2118ve162
57.5320VANDENBROUCK STÉPHAN45BELILOVERUNNING2:27:055:53 10.2019ve163TILLEUR
58.5193FONTAINE FABRICE50BEL2:27:095:54 10.194ve264LIÈGE
59.5061LOX DAMIEN19BELHEPL TECH2:27:095:54 10.191esp65LAMBERMONT
60.5506FRANCUS BRIEUC34BEL2:27:255:54 10.1835sen66FEXHE-SLINS
61.5406LEMPEREUR LOÏC24BEL2:27:395:55 10.1636sen67NEUPRÉ
62.5408FORTEMPS JIMMY39BEL2:27:445:55 10.1537sen68SAROLAY
63.5227LACROIX ANDRÉ47BEL2:27:505:55 10.1520ve169DISON
64.5028PIRON MAXENCE21BELHEL2:28:065:56 10.1338sen70
65.5461OUAHID ABDALLAH57ITA2:28:275:57 10.105ve271JUPILLE
66.5039CAM DOGAN30BELBEL2:28:585:58 10.0739sen72GRIVEGNÉE
67.5437CANIVET GREGORY38BELLA MILF ELLE EST BONNE2:29:386:00 10.0340sen73LIEGE
68.5517PIIRSON STEPHANE18BEL2:29:526:00 10.012esp74HEURE-LE-ROMAIN
69.5077NORO FRANÇOIS-XAVIER37BELCOLLÈGE SAINT-LOUIS LIÈGE2:32:176:06 9.8541sen75
70.5269OTTEN JOËL37BELULIEGE - JCPMF ST192:35:086:13 9.6742sen76ESNEUX
71.5185DUBOIS JONATHAN33BEL2:35:116:13 9.6743sen77TILFF
72.2545DUPONT BASILE26BEL2:35:136:13 9.6644sen78WOLUWE-SAINT-PIERRE
73.5502MARIN FREDERIC45BEL2:36:086:15 9.6121ve179WOLUWE-SAINT-PIERRE
74.5307THEAU EMILE20FRAULIEGE -2:36:156:15 9.6045sen80CASTELGINEST
75.5089MIÉVIS KEVIN30BELVILLE DE LIEGE2:38:136:20 9.4846sen81LIÈGE
76.5148BINARD MARC63BELULIEGE - JCPMF ST192:38:136:20 9.482ve382ANGLEUR
77.5459LEMAL DENIS51BEL2:40:106:25 9.376ve283LIÈGE
78.5504PIOT HERVÉ31BELPIOT2:40:256:25 9.3547sen84VISÉ
79.5270OTTEN YANNIC39BEL2:40:266:26 9.3548sen85OUPEYE
80.5003BARANOV ALEXANDR18BEL2:40:356:26 9.343esp86SERAING
81.5277PETERS PIERRE41BEL2:40:406:26 9.3422ve187JUPRELLE
82.5191FERNEZ PATRICK42BELI?? RUNNING2:40:576:27 9.3223ve188BEYNE-HEUSAY
83.5218JACOBS FABIEN52BELRUNASTOCK2:40:576:27 9.327ve289SAINT-GEORGES
84.5140BAUMANS BENOIT47BELRUNASTOCK2:40:586:27 9.3224ve190SAINT-GEORGES
85.5041DEGUELDRE MICHAEL25BELBEL2:41:026:27 9.3149sen91HOMBOURG
86.5471PIRENNE MARC49BEL2:41:426:29 9.2825ve192AUBEL
87.5467THOLL JEAN-PHILIPPE39BEL2:41:446:29 9.2850sen93ETALLE
88.5465TORNABENE JONATHAN36BEL2:41:546:29 9.2751sen94LIÈGE
89.5222KALKMANN FREDERIC47BEL2:42:176:30 9.2426ve196HANNUT
90.5430LEJEUNE FRANÇOIS34BEL2:42:196:30 9.2452sen97PAIFVE
91.5036RAUSIN BRICE27BELSAFRAN AERO BOOSTERS2:42:216:30 9.2453sen99BILSTAIN
92.5300SMITS JAN52NLD2:42:336:31 9.238ve2100LIÈGE
93.5540CHORANA PHIRUM38BELSWDE2:42:366:31 9.2354sen101
94.5493GAVRAY THOMAS32BEL2:42:446:31 9.2255sen102LIEGE
95.5180DETAILLE DAVID31BEL2:42:476:31 9.2256sen104FLEMALLE
96.5490DEDRY ANTOINE33BEL2:42:556:31 9.2157sen105LIEGE
97.5278PIAZZA MANU44BEL2:42:576:32 9.2127ve1106VIVEGNIS
98.5056GUCKEL BRUNO54BELHEPL - PERSONNEL2:43:006:32 9.209ve2107HOUTAIN SAINT SIMEON
99.5108LHUIRE JEAN-MARC44BELMUCO RUN LIÈGE2:43:076:32 9.2028ve1108LIÈGE
100.5040COLSON DAVID40BELBEL2:43:106:32 9.1929ve1109ANGLEUR
101.5288RIGAUX DIDIER54BEL2:43:176:32 9.1910ve2110MARBEHAN
102.5460THIRY SAMUELBEL2:43:236:33 9.181xxx111RACOUR
103.5262NEUTELINGS THIBAUT39BEL2:43:446:33 9.1658sen112TILFF
104.5136AGNOLI ANTHONY ATTILIO33BEL2:44:176:35 9.1359sen113MARTELANGE
105.5146BILLEN FRÉDÉRIC43BELULIEGE -2:44:216:35 9.1330ve1114TROOZ
106.5081HARDY FRANÇOIS37BELHAUTE ECOLE CHARLEMAGNE2:44:306:35 9.1260sen115LA REID
107.5457MARTIN LUDOVIC43BEL2:44:336:35 9.1231ve1116ROCLENGE
108.5048RENAULD MICHEL43BELCLUB D'ENTREPRISES DES HA2:44:346:35 9.1232ve1117WARSAGE
109.5103BULTOT CÉDRIC33BELMUCO RUN LIÈGE2:44:476:36 9.1061sen118ESNEUX
110.5158NR 5158 BEL2:44:496:36 9.102xxx119
111.5161CASTAIGNE MATTHIEU39BEL2:44:526:36 9.1062sen120ANGLEUR
112.5202GEORGES MICHAEL38BELBETRAIL / POCHT'RUNNING2:44:586:36 9.0963sen122SAIVE
113.5454GOBERT LOUIS19BEL2:45:006:36 9.094esp123SPRIMONT
114.5450JEHIN THOMAS27BEL2:45:116:37 9.0864sen124LIÈGE
115.5178DEMORI JULIEN24BELSERUNNERS2:45:116:37 9.0865sen125BIERSET
116.5095MONTULET ARNAUD35BELRESA2:45:166:37 9.0866sen127BRESSOUX
117.5327VYNCKE NICOLAS28BEL2:45:166:37 9.0867sen128WIHOGNE
118.5474VIGNERONT DENIS39BEL2:45:226:37 9.0768sen129HANNUT
119.5429MAGOTTEAUX BORIS41BELZATAC LIÈGE2:45:436:38 9.0533ve1130LIÈGE
120.5130DELMOTTE PASCAL44BELTIZIANO PORCINO2:45:476:38 9.0534ve1131SLINS
121.5017VERGNION FREDERIC18BEL2:45:496:38 9.055esp132TILFF
122.5488LEMPEREUR ARNAUD26BEL2:46:146:39 9.0269sen134NEUPRÉ
123.5001DHONDT PHILIPPE58BEL2:46:326:40 9.0111ve2135ZOERSEL
124.5445CROS JEREMY34FRA12.COM - JCH2:46:566:41 8.9970sen136THIMISTER
125.5236LEERSCHOOL MAXIME29BELT4F2:47:196:42 8.9771sen137SPRIMONT
126.5106GOMBEER YVES38BELMUCO RUN LIÈGE2:47:296:42 8.9672sen138SERAING
127.5137ALONSO HERNANDEZ MARCO38BELJCH2:47:316:43 8.9673sen139BEAUFAYS
128.5283POISMANS RENÉ-PASCAL27BEL2:47:356:43 8.9574sen140BRUXELLES
129.5088MICHEL RAMAKERS43BELVILLE DE LIEGE2:47:536:43 8.9435ve1141BONCELLES
130.5159BUSTIN BERNARD45BEL2:47:556:43 8.9336ve1142JUPRELLE
131.5156BRASSINE VINCENT45BELJCPMFJUPRELLE2:47:566:44 8.9337ve1143HERMEE
132.5427BELLEM ROLAND43BELLES MOTIVÉS DU MARDI2:48:066:44 8.9238ve1145DALHEM
133.5093FRISON DAVID46BELRESA2:48:186:44 8.9139ve1146ALLEUR
134.5456LEBER MATHIEU33BEL2:48:276:45 8.9075sen147LIÈGE
135.5147BILOCQ LUDOVIC33BEL2:48:286:45 8.9076sen148WANDRE
136.5279PIERCO KRISTOF40BEL2:48:316:45 8.9040ve1150STROMBEEK-BEVER
137.5110NELLES PAUL_PHILIPPE33BELMUCO RUN LIÈGE2:48:336:45 8.9077sen151LIÈGE
138.5261MOULET BORIS26BEL2:48:396:45 8.8978sen152LIÈGE
139.5060SLUYSMANS DANIEL59BELLIEGE AIRPORT2:48:396:45 8.8912ve2153GRACE-HOLLOGNE
140.5030TONNOIR GAUTHIER22BELHEL2:48:466:46 8.8979sen154
141.5076JASSELETTE FRANÇOIS22BELHEPL BEECKMAN2:49:176:47 8.8680sen156HODEIGE
142.5455CURNEL GINO50BEL2:49:186:47 8.8613ve2157NESSONVAUX
143.2931LUYMOEYEN THIBAULT25BELCJPL2:49:206:47 8.8681sen158BELGIQUE
144.5127BLANCHY JEAN-LOUP66BELLGS2:49:356:47 8.853ve3159SAINT VINCENT
145.5133PAUL CORENTIN40BELTIZIANO PORCINO2:49:406:48 8.8441ve1161TINLOT
146.5134PORCINO TIZIANO30BELTIZIANO PORCINO2:49:416:48 8.8482sen162JUPRELLE
147.5155BRASSELLE CHRISTIAN61BELJCPMF JUPRELLE2:49:486:48 8.834ve3163SLINS
148.5458COLSON CHARLES69BEL2:49:486:48 8.835ve3164EVEGNEE
149.5508WIONMONT WILLIAM31BEL2:50:256:49 8.8083sen166RHISNES
150.5473GEERINCK ANTON33BEL2:50:316:50 8.8084sen167LIEGE
151.5172DARCIS FRÉDÉRIC46BELJUPRELLE JOGGING2:50:416:50 8.7942ve1168WIHOGNE
152.5297SCHORKOPS GAËL31BEL2:50:426:50 8.7985sen169LIÈGE
153.5234LAZZARI GEOFFREY46BEL2:50:446:50 8.7943ve1170OUPEYE
154.5143BEUSEN BENJAMIN38BEL2:50:466:50 8.7886sen171FLÉMALLE
155.5275PERWEZ THIERRY50BEL2:51:016:51 8.7714ve2173CHAUDFONTAINE
156.5045BEYER BRUNO56BELCLUB D'ENTREPRISES DES HA2:51:046:51 8.7715ve2174SAIVE
157.5239LEROY ÉRIC50BEL2:51:086:51 8.7716ve2176OMBRET
158.5063BARBOU QUENTIN23FRAHEPL KINE2:51:096:51 8.7787sen177LIÈGE
159.5221KADIOGLU ISMAIL43BEL-2:51:216:52 8.7544ve1179MONTEGNÉE
160.5440DRIESEN OLIVIER49BEL2:51:366:52 8.7445ve1181ROLOUX
161.5020VAN HESPEN BENOIT51BEL2:51:366:52 8.7417ve2182BAS-OHA
162.5186DUMOULIN JEAN-LUC46BELBAC2:51:486:53 8.7346ve1183BATTICE
163.5438FREDERIC TADINO44BEL2:51:576:53 8.7247ve1184VILLERS-LE-BOUILLET
164.5407MATAGNE NICOLAS38BEL2:51:586:53 8.7288sen185VINALMONT
165.5112PAULY JEAN-PIERRE51BELCAP NRB2:52:066:54 8.7218ve2188MOMALLE
166.5233LAMBERT GUY55BEL2:52:126:54 8.7119ve2189ANS
167.5131DESADELEER JEAN-FRANCOIS47BELTIZIANO PORCINO2:52:136:54 8.7148ve1190HOUTAIN SAINT SIMEON
168.5503MICHEL JEAN-MARC58BEL2:52:276:54 8.7020ve2191VISÉ
169.5075GERAERTS VALENTIN21BELHEPL BEECKMAN2:52:306:54 8.7089sen192LIMBOURG
170.5441DE ROP OLIVIERBEL2:52:326:55 8.693xxx193ESNEUX
171.5435ZUCCARINI ENZO38BELLES JOB'S2:52:386:55 8.6990sen194MARCHIN
172.5311TIXHONN JÉRÉMIEE34BELLES JOB'S2:52:426:55 8.6991sen195AMAY
173.5306TASSIGNON CORENTIN27BELULIEGE -2:52:436:55 8.6992sen196LIÈGE
174.5177DELMOITIEZ STÉPHANE44BEL2:52:476:55 8.6849ve1197XHENDELESSE
175.5469GRENS ROBERT51NLDAV WEERT2:52:496:55 8.6821ve2198WEERT
176.5452HELLAS ARNAUD26BEL2:52:556:55 8.6893sen199LILLE
177.5428DEBRA CHRISTOPHE29BEL2:53:036:56 8.6794sen200LIÈGE
178.5294SANTALUCIA FABRICE52FRA2:53:446:57 8.6322ve2201SAINT ETIENNE DE CUINES
179.5073VIEL CORTO26FRAHEPL KINE2:53:566:58 8.6295sen202LIÈGE
180.5211HENRION SVEN34BELRT BRAIVES2:54:056:58 8.6296sen203WAREMME
181.5166CIULLA JOSEPH55BEL2:54:056:58 8.6223ve2204LIÈGE
182.5032DOBROWOLSKI JEAN47BELSAFRAN AERO BOOSTERS2:54:076:58 8.6250ve1205LIÈGE
183.5232LAMAIRE PASCAL46BELON THE ROAD AGAIN2:54:246:59 8.6051ve1206FLÉMALLE-HAUTE
184.5436DUMOULIN PHILIPPE53BEL2:54:246:59 8.6024ve2207HERVE-CHARNEUX
185.5190EVERAERT BENJAMIN37BEL2:54:447:00 8.5997sen209LA REID
186.5043WEGRIA FRANCOIS42BELTEAM SOLIDARIS2:54:487:00 8.5852ve1210AMAY
187.5219JENNEN PATRICK52NLD2:54:527:00 8.5825ve2212BONCELLES
188.5068HÉRISSON AUBIN23FRAHEPL KINE2:54:537:00 8.5898sen213LIÈGE
189.5449VROONEN MATTHIEUBEL2:55:147:01 8.564xxx214LIÈGE
190.5091TERGUI JAMAL47BELVILLE DE LIEGE2:55:307:02 8.5553ve1217OLNE
191.5087JOSEPH BERNARD42BELVILLE DE LIEGE2:55:317:02 8.5554ve1218LIEGE
192.5182DI CESARE STEPHANE42BEL2:55:387:02 8.5455ve1219ESNEUX
193.5015MEUNIER MARC48BELAREL TRAIL LUXEMBOURG2:55:507:02 8.5356ve1220LÉGLISE
194.5281PIRLOT JOFFROY36BELLA VELAINOISE2:55:587:03 8.5299sen221ACHÊNE
195.5005BRACH DIDIER44BEL2:56:107:03 8.5157ve1223LIEGE
196.5007MARCHAL XAVIER53BEL2:56:157:03 8.5126ve2224LIEGE
197.5431SPRIMONT ARNAUD30BEL2:56:347:04 8.50100sen225LIÈGE
198.5141BEAUJEAN DAVID41BEL2:57:257:06 8.4658ve1226ARGENTEAU
199.2379CORNET DENIS50BEL2:58:067:08 8.4227ve2228SPRIMONT
200.5317VANASCHEN VINCENT48BEL2:58:077:08 8.4259ve1229ST NICOLAS
201.5432MICHIELIN ERIC54BEL2:58:107:08 8.4228ve2230LIÈGE
202.5453HAULET NICOLAS41BELESPOT TEAM2:58:427:09 8.3960ve1233SPRIMONT
203.5022LEENDERS KEVIN33BEL2:58:557:10 8.38101sen234VILLERS LE BOUILLETS
204.5210HAMON MARTIN32FRA2:58:577:10 8.38102sen235TILFF
205.5316TUTUNARU ALEXANDRU36ROUULIEGE -2:58:587:10 8.38103sen236ANGLEUR-LIEGE
206.5201GEELEN ERWIN30BEL2:59:107:10 8.37104sen238VOEREN
207.5215HUBIN FRANÇOIS46BEL2:59:407:12 8.3561ve1241AYWAILLE
208.5200GARIBALDI ANGELO49ITA2:59:447:12 8.3562ve1243CHÊNÉE
209.5292RUGGIERI MIRKO42BEL2:59:467:12 8.3463ve1244HERSTAL
210.5023STRUB JEAN46BELLIÈGE 12:59:527:12 8.3464ve1246SERAING
211.5208HAEYEN LIONEL34BEL3:00:117:13 8.33105sen247GLONS
212.5168CORIN THIERRY52BEL3:00:457:14 8.3029ve2248VIVEGNIS
213.5153BOUVIER NICOLAS25BELULIEGE -3:00:577:15 8.29106sen249MAIZERET
214.5468MASY DANIEL61BEL3:01:377:16 8.266ve3251LIÈGE
215.5031COLLE JEAN-FRANCOIS34BELLIÈGE ATLAS3:01:467:17 8.25107sen252SAIVE
216.5204GIELEN JEAN-LOUIS50BEL3:01:537:17 8.2530ve2253ESNEUX
217.5034MATHIEU DIDIER38BELSAFRAN AERO BOOSTERS3:03:147:20 8.19108sen257HORION-HOZEMONT
218.5254MASSON VINCENT45BEL3:03:407:21 8.1765ve1260MARCHE EN FAMENNE
219.5197FRANCK LIONEL35BELKAPEL TRAILER TEAM3:03:597:22 8.15109sen261HENRI-CHAPELLE
220.5046DE CECCO MICHAEL41BELCLUB D'ENTREPRISES DES HA3:04:327:23 8.1366ve1262
221.5301SOARES FERNANDO44BEL3:04:327:23 8.1367ve1263OUPEYE
222.5425DUMONT BERNARD54BEL3:04:517:24 8.1231ve2264LATINNE
223.5183D'OVIDIO RAPHAEL43BELRUN IN LIEGE3:05:087:25 8.1068ve1267LIEGE
224.5114TYCHON EMMANUEL45BELCAP NRB3:05:227:25 8.0969ve1269ANGLEUR
225.5069JUNG PAUL23FRAHEPL KINE3:05:327:26 8.09110sen270LIÈGE
226.5117DANIEL ALAIN39FRACRMGROUP 20193:06:017:27 8.06111sen271HANNUT
227.5426KNAPEN ROMAIN29BEL3:06:067:27 8.06112sen272LIÈGE 1
228.5097SIMON GIL42BELRESA3:06:257:28 8.0570ve1275VISÉ
229.5165CICCARELLA TONY45ITACICCARELLA3:06:367:28 8.0471ve1276ESNEUX
230.5507SCHIDLO ERIC40BEL3:06:517:29 8.0372ve1278VISÉ
231.5520BRUWIER PIERRE52BEL3:06:517:29 8.0332ve2279VISE
232.5006BRUWIER ERIC51BEL3:06:577:29 8.0233ve2280DALHEM
233.5167CLOSE JEAN-CHRISTOPHE50BELILR3:07:027:29 8.0234ve2282LIEGE
234.5271PALUMBO PINO62BEL3:07:037:29 8.027ve3283LIÈGE
235.5229LAHAYE MARC41BEL3:07:067:30 8.0273ve1284BASSENGE
236.5267OLIVIER PASCAL47BEL3:07:107:30 8.0174ve1285TILLEUR
237.5179DENOEL ALAIN58BEL3:07:167:30 8.0135ve2286LIEGE
238.5203GHILAIN FRANÇOIS35BELARCELORMITTAL LIÈGE3:07:247:30 8.00113sen287LIEGE
239.5142BERTRAND THIERRY58BELARCELORMITTAL LIÈGE3:07:377:31 8.0036ve2288LIÈGE
240.5228LAFONTAINE PIERRE25BEL3:07:427:31 7.99114sen289LIÈGE
241.5207GUSTIN MAXIME32BELILR3:09:117:35 7.93115sen291LIÈGE
242.5309THOMAS JOËL44BEL3:09:137:35 7.9375ve1292LINCENT
243.5016ELMEKKI MOHAMED50BEL3:09:567:36 7.9037ve2294GRIVEGNEE
244.5154BRAHAM NICOLAS G.32BEL3:11:167:40 7.84116sen297LIÈGE
245.5511PECORARO ARNAUD18BEL3:12:247:42 7.806esp298LIEGE
246.5074DAUBY PIERRE22BELHEPL BEECKMAN3:13:307:45 7.75117sen299WANZE
247.5128DEBEY JOACHIM53BELLGS3:15:007:48 7.6938ve2301LIÈGE
248.5107JORIS YVES32BELMUCO RUN LIÈGE3:15:147:49 7.68118sen302LIÈGE
249.5247LUST CORENTIN31BEL3:17:197:54 7.60119sen304LIÈGE
250.5447LEYSEN TOM34BEL3:17:307:54 7.60120sen305LIÈGE
251.5244LOMMA LIONEL35BEL3:18:557:58 7.54121sen306OUPEYE
252.5268ORTUNO JUAN CARLOSBEL3:18:577:58 7.545xxx307WANDRE
253.5331WESPHAEL BORIS34BEL3:20:388:02 7.48122sen311DOLEMBREUX
254.5021LEENDERS MELVIN32BEL3:21:508:05 7.43123sen312VILLERS LE BOUILLETS
255.5462NOIRHOMME MARC52BELAREL TRAIL LUXEMBOURG3:22:358:07 7.4039ve2313ARLON
256.5173DE CECCO FRÉDÉRIC46BELJCPMF3:23:298:09 7.3776ve1315FLERON
257.5086LASSINE CEDRIC51BELDUO FOR A JOB 20193:24:258:11 7.3440ve2316AYWAILLE
258.5280PIQUARD BEN52BEL3:24:338:11 7.3341ve2317GENVAL
259.5240LEVECQ YANNICK38BEL3:25:048:13 7.32124sen318MÉRY
260.5249MANFREDINI TIBER48BELULIEGE -3:27:338:19 7.2377ve1320LIÈGE
261.5019HABRAN PHILIPPE54BELANS EN FORME3:27:348:19 7.2342ve2322ANS
262.5259MICHELS RONALD39BEL3:28:138:20 7.20125sen323BREE
263.5223KAN YVAN54BEL3:30:298:26 7.1343ve2324LIEGE
264.5284POLLARD LUC53BELWACO3:31:568:29 7.0844ve2325LIGNEY
265.5323VANHAEREN MAXIME24BELULIEGE -3:32:478:31 7.05126sen326SAROLAY
266.5064DUFERT ROMAIN24BELHEPL KINE3:32:478:31 7.05127sen327AUBEL
267.5333WINANDTS SÉBASTIEN41BEL3:37:308:42 6.9078ve1330LIÈGE
268.5224KEMPENEERS MICHEL51BEL3:39:198:47 6.8445ve2334TROOZ
269.5265OFFERMANN CHARLY44BEL3:39:198:47 6.8479ve1335DOLEMBREUX
270.5053DIMARTINO MAXIME23FRAHEPL - PERSONNEL3:39:438:48 6.83128sen337LIÈGE
271.5037RENAUD MATHIEU33FRASAFRAN AERO BOOSTERS3:40:138:49 6.81129sen338LIEGE
272.5195FOUARGE ANDRÉ57BELURUKAÏ3:41:378:52 6.7746ve2340LIÈGE
273.5322VANESSE JEAN DENIS53BEL3:42:088:54 6.7547ve2341MEEFFE
274.5024ADANT FRÉDÉRIC46BELJCPMF JUPRELLE3:42:318:55 6.7480ve1342ROCOURT
275.5509PAQUE JEAN-MARC53BEL3:43:048:56 6.7248ve2343TILFF
276.5412DE VRIES HARRY56NLDREACTIVE3:45:199:01 6.6649ve2346NIEUWEGEIN
277.5119NOUPRE GEOFFREY30BELGAMING13:48:419:09 6.56130sen349TROIS-PONTS
278.5293SAFIN ANTOINE41BELCO LIÈGE3:53:309:21 6.4281ve1351ANGLEUR
279.5199FUENTES FRANCISCO56LUX4:04:059:46 6.1550ve2354WAREMME
280.5513GELELEENS YVES GUILLAUME55BEL4:40:2811:14 5.3551ve2363VISÉ
281.5410DE BEER ROGER55BELOCRBW5:07:5212:19 4.8752ve2364ANS
282.5296SCHNEIDERS JEAN-PIERRE57BELULIEGE -5:39:5813:36 4.4153ve2366NEUVILLE-EN-CONDROZ
DSQ5078CLEMENTE RAMOS THOMAS22BELHAUTE ECOLE CHARLEMAGNE2:33:34senNEUPRE
DNF5169COURTOY THIERRY60BELve3LONCIN
DNF5174DE GREGORIO FABRICE46BELTRIATHLIÈGEve1ANGLEUR
DNF5175DELCHAMBRE FRÉDÉRIC46BELVINO TEAMve1AVENNES
DNF5014FAORLIN FABIANO56ITAMPW/HJMve2WANDRE - LIÈGE
DNF5226LABASSE ALAIN52BELve2CHAUDFONTAINE
DNF5258MEWISSEN THIERRY55BELve2LIÈGE
DNF5326VANWYNSBERGHE BERNARD59BELJCPMF WALHAINve2WALHAIN
DNF5487VARETTO SÉBASTIEN28BELsenLIÈGE
DNF: abandon; DSQ: disqualifié; Vitesse en km/h
Seite: [1]